Shorewood, Minnesota
Current Conditions -  °F | °C
As of 7:01 PM on Saturday 22 Nov 2014 (Local Time) from KFCM Reporting Station
Haze Haze  
Wind Chill: 28°   Ceiling: 300
Heat Index: 36°   Visibility: 1.5mi
Dew Point: 35°   Wind: 10mph
Humidity: 97%   Direction: 150°SSE
Pressure: 29.58"   Gusts: NA
Location:  44.9465°N, 93.6803°W
Report Text: KFCM 230101Z 15009KT 1 1/2SM BR OVC003 02/02 A2958 RMK AO2 T00220017
Loading
Personal Weather Stations






























Interactive Weather Map New forecast layout! Learn more

10-Day Weather Forecast

Advertisements
Track Severe Weather on mobile